Flight Track Log - Related Links

Times and Time Zones

All times are in EDT time to prevent confusion due to time zone crossing. See the UAL3842 flight status page for this flight to view local times or setup timezone preferences in your user account.


Time Position Orientation Groundspeed Altitude Reporting Facility
EDT Latitude Longitude Course Direction KTS MPH feet Rate Location/Type
Wed 07:06:51 PM 35.1972 -80.9381 95° East 167 192 1,300  Level Atlanta Center
Wed 07:07:46 PM 35.1489 -80.9297 172° South 189 217 2,900 1,759 Climbing Atlanta Center
Wed 07:08:47 PM 35.1097 -80.8600 124° Southeast 267 307 4,700 1,820 Climbing Atlanta Center
Wed 07:09:48 PM 35.1472 -80.7875 58° Northeast 288 331 6,600 1,941 Climbing Atlanta Center
Wed 07:09:55 PM 35.1511 -80.7747 70° East 285 328 6,900 2,291 Climbing Atlanta Center
Wed 07:10:00 PM 35.4987 -80.6306 72° East  Level Estimated
Wed 07:10:43 PM 35.1911 -80.7119 52° Northeast 291 335 8,700  Level Atlanta Center
Wed 07:10:55 PM 35.1992 -80.6989 53° Northeast 285 328 9,200 1,667 Climbing Atlanta Center
Wed 07:11:00 PM 35.5698 -80.5507 71° East  Level Estimated
Wed 07:11:55 PM 35.2533 -80.6153 52° Northeast 299 344 10,700  Level Atlanta Center
Wed 07:12:00 PM 35.5619 -80.4326 95° East  Level FlightAware Approximate
Wed 07:12:55 PM 35.3008 -80.5319 55° Northeast 319 367 11,300  Level Atlanta Center
Wed 07:14:53 PM 35.3875 -80.2925 66° East 376 433 13,800 1,269 Climbing Washington Center
Wed 07:15:50 PM 35.4239 -80.1672 70° East 387 445 15,000 1,119 Climbing Washington Center
Wed 07:16:51 PM 35.4600 -80.0394 71° East 393 452 16,000 1,041 Climbing Washington Center
Wed 07:17:51 PM 35.4942 -79.9061 72° East 398 458 17,100 942 Climbing Washington Center
Wed 07:18:52 PM 35.5281 -79.7700 73° East 403 464 17,900 843 Climbing Washington Center
Wed 07:19:52 PM 35.5594 -79.6492 72° East 403 464 18,800 1,017 Climbing Washington Center
Wed 07:20:50 PM 35.5978 -79.5028 72° East 430 495 19,900 958 Climbing Washington Center
Wed 07:21:51 PM 35.6375 -79.3694 70° East 430 495 20,700 787 Climbing Washington Center
Wed 07:22:52 PM 35.6939 -79.2339 63° Northeast 430 495 21,500 908 Climbing Washington Center
Wed 07:23:50 PM 35.7883 -79.1436 38° Northeast 420 483 22,500 1,119 Climbing Washington Center
Wed 07:24:50 PM 35.8947 -79.0689 30° Northeast 420 483 23,700 1,140 Climbing Washington Center
Wed 07:25:51 PM 35.9972 -78.9911 32° Northeast 425 489 24,800 1,131 Climbing Washington Center
Wed 07:26:52 PM 36.0994 -78.9158 31° Northeast 425 489 26,000 1,190 Climbing Washington Center
Wed 07:27:52 PM 36.2017 -78.8431 30° Northeast 425 489 27,200 1,150 Climbing Washington Center
Wed 07:28:52 PM 36.3017 -78.7672 31° Northeast 425 489 28,300 1,068 Climbing Washington Center
Wed 07:29:50 PM 36.4061 -78.6914 30° Northeast 425 489 29,300 1,109 Climbing Washington Center
Wed 07:30:51 PM 36.5039 -78.6128 33° Northeast 425 489 30,500 1,190 Climbing Washington Center
Wed 07:31:51 PM 36.6039 -78.5414 30° Northeast 420 483 31,700 1,160 Climbing Washington Center
Wed 07:32:50 PM 36.7058 -78.4625 32° Northeast 420 483 32,800 1,109 Climbing Washington Center
Wed 07:33:50 PM 36.8036 -78.3856 32° Northeast 420 483 33,900 1,091 Climbing Washington Center
Wed 07:34:51 PM 36.9036 -78.3089 32° Northeast 420 483 35,000 545 Climbing Washington Center
Wed 07:35:51 PM 37.0181 -78.2217 31° Northeast 427 491 35,000  Level Washington Center
Wed 07:36:52 PM 37.1178 -78.1469 31° Northeast 443 510 35,000  Level Washington Center
Wed 07:37:50 PM 37.2281 -78.0594 32° Northeast 456 525 35,000  Level Washington Center
Wed 07:38:50 PM 37.3467 -77.9692 31° Northeast 475 547 35,000  Level Washington Center
Wed 07:39:51 PM 37.4611 -77.8811 31° Northeast 480 552 35,000  Level Washington Center
Wed 07:40:52 PM 37.5733 -77.7903 33° Northeast 480 552 35,000  Level Washington Center
Wed 07:41:50 PM 37.6794 -77.6936 36° Northeast 475 547 35,000  Level Washington Center
Wed 07:42:51 PM 37.7831 -77.5992 36° Northeast 475 547 35,000  Level Washington Center
Wed 07:43:51 PM 37.8889 -77.5019 36° Northeast 470 541 35,000  Level Washington Center
Wed 07:44:50 PM 37.9947 -77.4072 35° Northeast 465 535 35,000  Level Washington Center
Wed 07:45:51 PM 38.1111 -77.2992 36° Northeast 456 525 35,000  Level Washington Center
Wed 07:46:52 PM 38.2189 -77.1986 36° Northeast 461 531 35,000  Level Washington Center
Wed 07:47:52 PM 38.3264 -77.0950 37° Northeast 482 555 35,000  Level Washington Center
Wed 07:48:50 PM 38.4381 -76.9967 35° Northeast 482 555 35,000  Level Washington Center
Wed 07:49:50 PM 38.5478 -76.8925 37° Northeast 482 555 35,000  Level Washington Center
Wed 07:50:52 PM 38.6572 -76.7881 37° Northeast 482 555 35,000  Level Washington Center
Wed 07:51:53 PM 38.7625 -76.6778 39° Northeast 491 565 35,000 -51 Level Washington Center
Wed 07:52:50 PM 38.8636 -76.5647 41° Northeast 480 552 34,900 -1,210 Descending Washington Center
Wed 07:53:52 PM 38.9625 -76.4486 42° Northeast 480 552 32,600 -2,400 Descending Washington Center
Wed 07:54:50 PM 39.0569 -76.3375 42° Northeast 468 539 30,100 -2,492 Descending Washington Center
Wed 07:55:50 PM 39.1472 -76.2314 42° Northeast 451 519 27,700 -1,550 Descending Washington Center
Wed 07:56:50 PM 39.2436 -76.1250 41° Northeast 451 519 27,000 -347 Descending Washington Center
Wed 07:57:51 PM 39.3358 -76.0156 43° Northeast 446 513 27,000 -639 Level Washington Center
Wed 07:58:52 PM 39.4278 -75.9058 43° Northeast 446 513 25,700 -1,339 Descending Washington Center
Wed 07:59:52 PM 39.5239 -75.7933 42° Northeast 451 519 24,300 -1,678 Descending Washington Center
Wed 08:00:50 PM 39.6136 -75.6858 43° Northeast 451 519 22,400 -1,780 Descending Washington Center
Wed 08:01:50 PM 39.7053 -75.5781 42° Northeast 446 513 20,800 -1,140 Descending Washington Center
Wed 08:02:51 PM 39.7822 -75.4861 43° Northeast 440 506 20,100 -1,339 Descending Washington Center
Wed 08:03:51 PM 39.8656 -75.3833 43° Northeast 421 484 18,100 -2,132 Descending Washington Center
Wed 08:04:52 PM 39.9506 -75.2831 42° Northeast 415 478 15,800 -2,269 Descending Washington Center
Wed 08:05:50 PM 40.0294 -75.1822 44° Northeast 410 472 13,600 -1,974 Descending Washington Center
Wed 08:07:27 PM 40.1500 -75.0333 43° Northeast 302 348 10,700 -1,720 Descending New York TRACON
Wed 08:08:27 PM 40.2167 -74.9667 37° Northeast 282 325 9,100 -1,140 Descending New York TRACON
Wed 08:09:28 PM 40.2667 -74.8833 52° Northeast 277 319 8,400 -645 Descending New York TRACON
Wed 08:10:28 PM 40.3167 -74.8167 45° Northeast 272 313 7,800 -1,150 Descending New York TRACON
Wed 08:11:28 PM 40.3667 -74.7500 45° Northeast 260 299 6,100 -900 Descending New York TRACON
Wed 08:12:28 PM 40.4167 -74.6833 45° Northeast 251 289 6,000 -50 Descending New York TRACON
Wed 08:13:28 PM 40.4833 -74.6500 21° North 264 304 6,000  Level New York TRACON
Wed 08:14:28 PM 40.5500 -74.6333 11° North 260 299 6,000  Level New York TRACON
Wed 08:15:28 PM 40.6167 -74.6167 11° North 268 308 6,000 -100 Level New York TRACON
Wed 08:16:28 PM 40.6833 -74.5667 30° Northeast 264 304 5,800 -333 Descending New York TRACON
Wed 08:18:28 PM 40.8000 -74.4667 33° Northeast 252 290 5,000 -267 Descending New York TRACON
Wed 08:19:28 PM 40.8667 -74.4167 30° Northeast 258 297 5,000 -150 Level New York TRACON
Wed 08:20:28 PM 40.9000 -74.3500 57° Northeast 264 304 4,700 -500 Descending New York TRACON
Wed 08:21:28 PM 40.9167 -74.2500 78° East 258 297 4,000 -350 Descending New York TRACON
Wed 08:22:28 PM 40.9000 -74.1667 105° East 265 305 4,000 -600 Level New York TRACON
Wed 08:23:28 PM 40.8667 -74.0833 118° Southeast 267 307 2,800 -900 Descending New York TRACON
Wed 08:24:28 PM 40.8000 -74.1000 191° South 230 265 2,200 -800 Descending New York TRACON
Wed 08:25:28 PM 40.7500 -74.1333 207° Southwest 166 191 1,200 -895 Descending New York TRACON
Wed 08:26:22 PM 40.7167 -74.1500 201° Southwest 141 162 500 -778 Descending New York TRACON

Login

Don't have an account? Register now (free) for customized features, flight alerts, and more!